Ada, Ohio
Current Conditions -  °F | °C
As of 12:53 PM on Thursday 29 Jan 2015 (Local Time) from KAOH Reporting Station
Overcast Overcast  
Wind Chill:   Ceiling: 2200
Heat Index:   Visibility: 10mi
Dew Point:   Wind: 13mph
Humidity: 67%   Direction: 210°SSW
Pressure: 29.73"   Gusts: NA
Location:  40.78°N, 83.82°W
Report Text: KAOH 291753Z AUTO 21011KT 10SM OVC022 06/00 A2973 RMK AO2 SLP076 T00560000 10056 20028 58011
Loading
Personal Weather Stations






























Interactive Weather Map New forecast layout! Learn more

10-Day Weather Forecast

Advertisements
Track Severe Weather on mobile